Terminal Aerodrome Forecast
Issued by NWS Billings, MT

Home | Current Version | Previous Version | Graphics & Text | Print | Product List | Glossary On
Versions: 1 2 3 4 5 6 7 8 9 10 11 12 13 14 15 16 17 18 19 20 21 22 23 24 25
000
FTUS45 KBYZ 281725
TAFMLS
TAF
KMLS 281725Z 2818/2918 31014G24KT P6SM SCT020
     FM290300 34007KT P6SM SCT008 OVC012
     FM290800 VRB04KT P6SM VCFG OVC008
     FM291500 15006KT P6SM SCT010=

USA.gov is the U.S. government's official web portal to all federal, state and local government web resources and services.